Time;durP1;ratioP1;P1;durP2;ratioP2;P2;SDS_P1;SDS_P2;PMS_P1;PMS_P2;Temp;Humidity;BMP_temperature;BMP_pressure;BME280_temperature;BME280_humidity;BME280_pressure;Samples;Min_cycle;Max_cycle;Signal;HPM_P1;HPM_P2
2022/06/12 00:00:19;;;;;;;6.13;3.55;;;;;;;21.43;47.22;99790.13;31558139;28;20065;-76
2022/06/12 00:15:24;;;;;;;7.72;2.88;;;;;;;21.37;46.90;99786.59;31577427;28;20045;-77
2022/06/12 00:30:26;;;;;;;5.82;2.85;;;;;;;21.23;52.04;99782.06;31541734;28;20059;-76
2022/06/12 00:45:39;;;;;;;10.63;2.73;;;;;;;21.24;57.46;99772.53;31577359;28;20044;-75
2022/06/12 01:00:42;;;;;;;7.57;2.80;;;;;;;21.22;55.55;99771.53;31580824;28;20525;-75
2022/06/12 01:15:51;;;;;;;6.13;2.97;;;;;;;21.07;58.17;99768.94;31568431;28;20502;-76
2022/06/12 01:31:06;;;;;;;4.57;2.72;;;;;;;21.04;54.94;99769.94;31590434;28;20049;-76
2022/06/12 01:46:21;;;;;;;9.55;3.40;;;;;;;20.88;54.43;99768.63;31571200;28;20075;-76
2022/06/12 02:01:32;;;;;;;12.55;3.58;;;;;;;20.90;53.54;99765.38;31599428;28;20048;-76
2022/06/12 02:16:39;;;;;;;8.75;3.20;;;;;;;21.00;52.94;99764.66;31561828;28;20048;-76
2022/06/12 02:31:45;;;;;;;5.22;3.53;;;;;;;21.09;53.39;99772.69;31585092;28;20148;-75
2022/06/12 02:46:54;;;;;;;7.57;3.65;;;;;;;21.20;53.10;99777.53;31554024;28;20068;-76
2022/06/12 03:02:51;;;;;;;7.72;3.30;;;;;;;21.46;54.40;99776.56;31564459;28;20048;-75
2022/06/12 03:17:53;;;;;;;9.00;3.95;;;;;;;21.82;52.20;99777.56;31480534;28;20058;-76
2022/06/12 03:33:20;;;;;;;20.63;5.00;;;;;;;22.09;51.89;99777.56;31579009;28;20051;-77
2022/06/12 03:48:30;;;;;;;8.80;3.60;;;;;;;22.50;50.62;99770.66;31563447;28;20048;-77
2022/06/12 04:03:40;;;;;;;9.15;4.32;;;;;;;23.09;47.49;99761.88;31574360;28;20048;-76
2022/06/12 04:18:42;;;;;;;13.32;5.55;;;;;;;23.36;48.85;99755.41;31577083;28;20455;-76
2022/06/12 04:34:12;;;;;;;12.27;5.73;;;;;;;23.95;49.16;99751.13;31585121;28;20503;-77
2022/06/12 04:49:18;;;;;;;9.73;5.35;;;;;;;24.50;48.27;99742.75;31600438;28;20060;-76
2022/06/12 05:04:23;;;;;;;11.27;5.78;;;;;;;25.10;47.54;99734.88;31580599;28;20056;-76
2022/06/12 05:19:30;;;;;;;15.52;8.77;;;;;;;25.86;47.23;99736.19;31577302;28;20117;-77
2022/06/12 05:34:33;;;;;;;18.58;10.38;;;;;;;26.68;44.43;99745.50;31564206;28;20062;-76
2022/06/12 05:49:35;;;;;;;17.67;12.57;;;;;;;27.10;43.98;99740.81;31583514;28;20368;-77
2022/06/12 06:04:37;;;;;;;24.52;15.07;;;;;;;27.82;43.52;99729.94;31567460;28;20050;-77
2022/06/12 06:19:39;;;;;;;25.75;14.98;;;;;;;28.43;42.56;99735.88;31576494;28;20361;-77
2022/06/12 06:34:42;;;;;;;33.65;18.25;;;;;;;29.12;41.00;99731.28;31561044;28;20056;-77
2022/06/12 06:49:44;;;;;;;27.55;16.88;;;;;;;29.62;40.41;99723.34;31558677;28;20059;-77
2022/06/12 07:04:46;;;;;;;29.92;16.50;;;;;;;30.09;39.83;99712.31;31543218;28;20060;-78
2022/06/12 07:19:48;;;;;;;30.85;18.35;;;;;;;30.73;38.54;99716.53;31566154;28;20056;-78
2022/06/12 07:34:53;;;;;;;34.22;17.83;;;;;;;31.18;38.48;99707.13;31576149;28;20055;-80
2022/06/12 07:49:55;;;;;;;28.15;16.55;;;;;;;31.68;36.61;99698.72;31582125;28;20078;-80
2022/06/12 08:04:57;;;;;;;22.42;15.10;;;;;;;32.01;32.93;99696.53;31596153;28;20084;-79
2022/06/12 08:35:28;;;;;;;18.98;10.52;;;;;;;33.37;30.89;99670.72;31540547;28;20060;-76
2022/06/12 08:50:57;;;;;;;17.13;9.18;;;;;;;34.00;27.78;99655.75;31577813;28;20067;-76
2022/06/12 09:06:20;;;;;;;10.80;6.77;;;;;;;34.46;26.65;99649.19;31579074;28;20135;-77
2022/06/12 09:21:47;;;;;;;8.68;5.32;;;;;;;35.13;24.31;99636.94;31559476;28;20475;-77
2022/06/12 09:36:55;;;;;;;12.27;6.53;;;;;;;35.78;24.84;99618.72;31580608;28;20056;-76
2022/06/12 09:52:06;;;;;;;11.02;5.68;;;;;;;36.07;23.62;99596.59;31565075;28;20059;-77
2022/06/12 10:07:15;;;;;;;6.18;4.65;;;;;;;36.15;23.67;99597.09;31555456;28;20058;-77
2022/06/12 10:22:25;;;;;;;6.45;4.32;;;;;;;35.87;23.90;99578.38;31573877;28;20439;-76
2022/06/12 10:37:28;;;;;;;6.90;4.20;;;;;;;34.76;25.21;99547.00;31538797;28;20059;-77
2022/06/12 10:52:30;;;;;;;6.70;4.72;;;;;;;37.09;23.30;99540.63;31619397;28;20520;-78
2022/06/12 11:08:13;;;;;;;12.43;5.70;;;;;;;37.19;22.19;99516.53;31559975;28;20040;-77
2022/06/12 11:23:27;;;;;;;9.13;6.32;;;;;;;35.72;23.06;99502.53;31542332;28;20102;-77
2022/06/12 11:39:04;;;;;;;13.15;7.32;;;;;;;34.20;25.42;99468.50;31562444;28;20117;-76
2022/06/12 11:54:25;;;;;;;10.43;6.85;;;;;;;33.65;27.10;99463.13;31600915;28;20047;-76
2022/06/12 12:09:52;;;;;;;15.38;7.82;;;;;;;33.71;27.19;99455.13;31567649;28;20052;-77
2022/06/12 12:25:04;;;;;;;10.98;7.30;;;;;;;33.78;26.19;99445.81;31633222;28;20048;-77
2022/06/12 12:55:56;;;;;;;14.57;7.57;;;;;;;32.35;31.49;99437.41;31576297;28;20411;-77
2022/06/12 13:11:27;;;;;;;12.95;7.10;;;;;;;30.86;38.01;99443.78;31569381;28;20048;-76
2022/06/12 13:26:34;;;;;;;10.15;6.72;;;;;;;31.73;34.73;99433.25;31578985;28;20132;-77
2022/06/12 13:41:43;;;;;;;6.45;5.40;;;;;;;29.90;44.05;99488.13;31554891;28;20510;-77
2022/06/12 13:57:12;;;;;;;9.15;5.63;;;;;;;27.25;55.49;99517.28;31597149;28;20054;-77
2022/06/12 14:12:14;;;;;;;17.13;6.78;;;;;;;26.25;61.65;99603.94;31609770;28;20403;-77
2022/06/12 14:27:23;;;;;;;9.98;5.22;;;;;;;24.63;61.77;99602.06;31569598;28;20427;-76
2022/06/12 14:42:27;;;;;;;9.18;5.03;;;;;;;23.79;63.77;99607.94;31553915;28;20056;-74
2022/06/12 14:57:29;;;;;;;12.98;5.85;;;;;;;23.73;70.49;99593.38;31579181;28;20085;-76
2022/06/12 15:12:32;;;;;;;18.63;9.40;;;;;;;23.67;66.39;99574.03;31546920;28;20047;-76
2022/06/12 15:42:55;;;;;;;12.18;6.95;;;;;;;24.09;61.24;99557.94;31562780;28;20048;-74
2022/06/12 15:57:57;;;;;;;11.13;3.77;;;;;;;24.18;61.12;99531.84;31598723;28;20056;-75
2022/06/12 16:12:59;;;;;;;;;;;;;;;24.32;57.49;99519.56;31579309;28;20058;-75
2022/06/12 16:28:01;;;;;;;9.13;3.58;;;;;;;24.28;57.57;99497.69;31578338;28;20007;-76
2022/06/12 16:43:03;;;;;;;79.73;42.63;;;;;;;24.20;57.21;99484.91;31604008;28;20054;-77
2022/06/12 16:58:11;;;;;;;18.92;6.57;;;;;;;24.31;54.84;99495.88;31548609;28;20487;-77
2022/06/12 17:13:14;;;;;;;16.13;6.15;;;;;;;24.37;53.50;99529.81;31544534;28;20054;-78
2022/06/12 17:28:17;;;;;;;12.20;5.78;;;;;;;24.16;53.42;99590.59;31547185;28;20056;-78
2022/06/12 17:43:19;;;;;;;15.07;5.82;;;;;;;23.78;54.87;99595.34;31531117;28;20080;-77
2022/06/12 17:58:21;;;;;;;15.97;5.80;;;;;;;23.55;54.70;99599.63;31574525;28;20070;-76
2022/06/12 18:13:23;;;;;;;10.80;4.63;;;;;;;23.61;53.74;99614.19;31559194;28;20047;-79
2022/06/12 18:28:26;;;;;;;11.45;4.13;;;;;;;23.34;53.94;99658.22;31549871;28;20496;-77
2022/06/12 18:43:28;;;;;;;6.33;2.63;;;;;;;23.33;53.02;99686.44;31581399;28;20110;-77
2022/06/12 18:58:30;;;;;;;2.40;1.80;;;;;;;23.30;52.52;99724.22;31568900;28;20102;-76
2022/06/12 19:13:32;;;;;;;3.53;2.10;;;;;;;23.11;53.54;99739.97;31540585;28;20048;-76
2022/06/12 19:28:34;;;;;;;3.90;2.60;;;;;;;22.66;57.56;99765.09;31614810;28;20048;-76
2022/06/12 19:43:36;;;;;;;4.33;2.97;;;;;;;22.20;60.54;99748.41;31595332;28;20789;-75
2022/06/12 19:58:38;;;;;;;7.67;4.60;;;;;;;22.28;61.95;99738.31;31571041;28;20094;-76
2022/06/12 20:13:41;;;;;;;7.23;4.60;;;;;;;22.25;63.20;99725.50;31574356;28;20352;-77
2022/06/12 20:28:43;;;;;;;8.60;5.33;;;;;;;21.98;65.39;99727.78;31557188;28;20067;-77
2022/06/12 20:43:45;;;;;;;10.60;6.55;;;;;;;21.71;68.01;99747.94;31562862;28;20052;-77
2022/06/12 20:58:47;;;;;;;15.80;8.67;;;;;;;21.53;69.67;99720.81;31548968;28;20052;-76
2022/06/12 21:13:50;;;;;;;38.20;16.50;;;;;;;21.54;69.57;99678.91;31575726;28;20060;-76
2022/06/12 21:28:52;;;;;;;31.97;15.77;;;;;;;21.50;70.00;99694.22;31556699;28;20139;-75
2022/06/12 21:43:54;;;;;;;24.00;11.77;;;;;;;21.58;70.91;99651.03;31529943;28;20059;-77
2022/06/12 21:58:56;;;;;;;19.25;8.13;;;;;;;21.50;72.01;99639.72;31597867;28;20044;-75
2022/06/12 22:13:58;;;;;;;10.20;5.88;;;;;;;21.58;71.70;99612.38;31566558;28;20048;-75
2022/06/12 22:29:00;;;;;;;12.13;6.07;;;;;;;21.37;73.89;99626.47;31571879;28;20056;-76
2022/06/12 22:44:02;;;;;;;8.93;5.07;;;;;;;21.13;74.70;99662.06;31534383;28;20134;-75
2022/06/12 22:59:04;;;;;;;4.25;3.35;;;;;;;20.96;76.94;99655.81;31554709;28;20071;-76
2022/06/12 23:14:06;;;;;;;4.70;3.10;;;;;;;20.95;75.70;99659.81;31570270;28;20423;-76
2022/06/12 23:29:10;;;;;;;7.38;4.05;;;;;;;20.99;74.12;99660.31;31575435;28;20044;-75
2022/06/12 23:44:12;;;;;;;6.63;3.72;;;;;;;21.02;74.51;99651.03;31559243;28;20045;-77
2022/06/12 23:59:14;;;;;;;5.45;3.70;;;;;;;21.02;74.47;99645.53;31541718;28;20048;-75
